Latest Observation

42 Stations

15 Minute Data | America/Los_Angeles
as of 5/6/26 4:42 AM PDT
Station Date Time Temp (°F) RH (%) Dew Pt (°F) Wind Spd (mph) Wind Dir (°) Wind Gust (mph) Latest Rain (In) Daily Rain (In) Daily Min Temp (°F) Daily Max Temp (°F) Daily Max Wind (mph)
Elk Mt. Farm 5/6/26 0430 54.2   3.6 - - - - - - - 54.2   4.1 55.4   4.3 -
Upper Lake 5/6/26 0430 54.1   3.8 93   3 52.0   4.6 0.1 W | 278 1.1   6.6 0.00 0.00 54.1   4.1 54.8   3.9 7.2   3.4
Scotts Valley 5/6/26 0430 54.3   5.1 89   4 51.2   3.8 0.7 NNW | 341 2.3   1.4 0.00 0.00 54.2   5.1 54.7   4.4 3.4   0.0
Scotts Valley-South (Bella Vista) 5/6/26 0430 54.0   4.8 84   3 49.5   3.9 1.3 NNW | 337 2.0   0.7 0.00 0.00 54.0   5.0 54.4   4.3 5.3   1.9
Kelseyville 5/6/26 0430 55.3   6.7 87   7 51.5   4.4 1.1 SSW | 203 2.2   0.4 0.00 0.00 55.1   6.8 55.4   4.5 3.9   2.2
Kelseyville Remote 5/6/26 0430 55.9   7.0 78   8 49.3   4.3 - - - 0.00 0.00 55.7   6.8 56.0   4.4 -
Kelseyville (Clark Drive) 5/6/26 0430 55.7   6.3 - - - - - 0.00 0.00 55.6   6.5 56.0   5.3 -
Kelsey Bench (Oaklea) 5/6/26 0430 54.2   6.2 86   6 50.2   4.4 0.0 N | 0 0.0   0.0 0.00 0.00 53.6   6.1 54.3   4.8 0.0   0.1
Smith Lane (Kelseyville-South) 5/6/26 0430 55.4   7.2 87   8 51.7   4.9 0.1 SSW | 197 2.1   1.1 0.00 0.00 54.8   6.7 55.4   4.9 4.9   1.7
Bell Hill-West 5/6/26 0430 55.2   6.4 96   4 54.0   5.2 1.8 S | 178 3.4   1.0 0.00 0.00 54.4   6.0 55.3   5.0 4.4   3.4
High Valley Ridgeline (Brassfield) 5/6/26 0430 51.8   5.2 97   1 51.0   4.9 0.0 W | 281 0.6   9.9 0.00 0.00 51.5   5.4 52.6   5.8 4.3   15.3
Wight Way (Adobe Creek) 5/6/26 0400 54.7   6.5 87   6 50.8   4.6 0.0 N | 0 0.0   0.4 0.00 0.00 54.1   6.1 54.7   5.2 4.3   3.4
Ridgeline Top (Brassfield) 5/6/26 0430 52.0   5.4 - - - - - - - 51.5   5.4 52.5   5.8 -
Ridgeline Low (Brassfield) 5/6/26 0430 53.4   5.0 - - - - - - - 53.3   5.3 54.0   5.3 -
Long Valley (Shannon) 5/6/26 0345 56.7   6.3 92   1 54.5   6.0 3.0 E | 91 5.8   4.5 0.00 0.00 56.6   7.8 58.2   5.7 5.8   1.4
High Valley Winery 5/6/26 0430 55.0   5.8 90   0 52.0   5.7 0.4 WSW | 243 2.1   5.4 0.00 0.00 54.3   6.0 55.1   5.5 2.5   13.5
Round Mtn Rd. 5/6/26 0430 54.4   5.7 - - - - - - - 53.9   7.0 54.5   5.1 -
Circle O 5/6/26 0430 53.7   5.6 - - - - - - - 52.9   6.7 53.8   5.5 -
Robertsbridge Vineyards 5/6/26 0430 54.2   6.4 90   8 51.3   4.1 - - - - - 53.8   6.8 54.3   6.1 -
Urgency Vineyard 5/6/26 0430 54.1   5.8 92   4 51.9   7.0 0.3 N | 7 1.1   9.1 0.00 0.00 53.2   5.2 54.1   5.5 1.9   9.0
Red Hills (Beckstoffer) 5/6/26 0430 54.1   5.5 96   8 53.1   7.8 - - - 0.00 0.00 53.3   4.9 54.1   5.2 -
Winters (Shannon) 5/6/26 0430 53.2   5.3 93   9 51.1   7.9 0.0 N | 0 0.0   8.3 0.00 0.00 52.4   5.5 53.3   5.2 2.2   12.6
Secret Pond (Shannon) 5/6/26 0430 52.7   5.3 94   9 51.0   7.9 0.1 ENE | 69 1.0   9.5 0.00 0.00 52.1   5.6 53.2   5.7 2.2   13.9
Rolling Knolls (Shannon) 5/6/26 0430 54.9   4.9 89   7 51.6   7.1 0.0 N | 0 0.0   7.3 0.00 0.00 54.2   4.9 55.5   4.8 3.1   9.6
Lower Lake 5/6/26 0430 54.8   4.5 93   10 52.8   7.4 0.0 NNE | 21 0.6   6.3 0.00 0.00 54.1   4.4 55.2   4.8 3.5   15.5
Adamson Ranch 5/6/26 0430 55.2   3.8 93   9 53.2   6.5 0.2 ENE | 71 1.3   0.9 0.00 0.00 54.8   4.3 56.1   4.6 2.2   3.9
Middletown (Diamond D) 5/6/26 0430 55.9   4.4 89   2 52.8   3.6 0.0 ESE | 106 0.4   1.8 0.00 0.00 55.8   4.4 56.6   4.3 3.5   4.2
Middletown-West (Domaine Helena) 5/6/26 0430 54.1   3.9 94   2 52.6   4.5 0.0 N | 0 0.0   6.6 0.00 0.00 54.1   4.0 54.8   3.7 2.4   9.0
Middletown-South 5/6/26 0430 55.2   4.4 90   4 52.4   3.3 0.3 SW | 221 2.0   1.2 0.00 0.00 54.8   4.2 55.8   3.9 2.5   15.1
Jim Davis (Langtry) 5/6/26 0430 55.6   4.2 89   6 52.6   2.5 0.2 WNW | 296 1.0   0.0 0.00 0.00 55.5   4.5 55.9   4.2 3.4   2.8
Napa Valley Basin 5/6/26 0430 56.8   4.1 91   5 54.2   2.7 0.0 WNW | 291 0.9   1.3 0.00 0.00 56.7   4.5 57.8   4.8 3.9   2.1
Lower Bohn 5/6/26 0430 55.1   4.5 93   4 53.2   3.2 0.0 N | 0 0.0   0.4 0.00 0.00 54.6   4.4 55.3   3.9 2.7   3.7
Upper Bohn-North 5/6/26 0430 55.8   4.4 89   11 52.6   1.1 0.0 N | 0 0.0   2.5 0.00 0.00 55.8   4.6 56.3   4.4 3.1   2.3
Snell Peak Blk#9 5/6/26 0430 55.8   5.0 90   10 53.0   2.3 0.2 W | 263 1.2   1.2 0.00 0.00 55.4   4.8 56.0   4.4 2.7   2.6
Coyote Lake West 5/6/26 0430 56.5   4.8 87   8 52.7   2.3 0.0 W | 278 0.1   2.9 0.00 0.00 56.3   4.8 56.8   4.6 3.2   3.1
Coyote Lake Northeast 5/6/26 0430 56.7   4.7 86   11 52.6   1.5 - - - - - 56.2   4.5 56.9   4.7 -
Coyote Lake East 5/6/26 0430 57.3   4.1 90   8 54.3   1.7 - - - - - 57.2   4.7 58.4   5.0 -
Morgan Valley 5/6/26 0430 52.9   5.4 100   1 52.9   5.6 0.0 N | 0 0.0   11.4 0.00 0.00 51.0   3.8 53.0   5.2 1.6   21.2
Mine Pit North 5/6/26 0430 52.6   3.9 87   10 48.8   1.0 0.7 N | 357 2.2   2.6 - - 52.1   3.9 53.1   3.9 4.8   12.3
Mine Pit South 5/6/26 0430 52.5   4.3 91   9 49.9   1.7 0.0 N | 0 0.0   4.8 0.00 0.00 51.3   3.8 52.8   4.0 5.2   7.8
Cow Mountain 5/6/26 0430 48.3   6.6 - - 6.2 ESE | 106 10.7   13.6 0.01 0.01 47.4   6.3 49.1   7.2 11.2   18.6
Ukiah-SE (Ruddick) 5/6/26 0430 55.1   2.8 81   1 49.4   2.3 1.2 NNW | 336 2.3   3.4 0.00 0.00 54.5   2.7 55.4   2.8 6.4   3.0
Max     57.3 100 54.5 6.2 - 10.7 0.01 0.01 57.2 58.4 11.2
Avg     54.5 90 51.9 0.6 - 1.5 0.00 - - - -
Min     48.3 78 48.8 0.0 - 0.0 0.00 0.00 47.4 49.1 0.0